sensor_id;sensor_type;location;lat;lon;timestamp;P1;durP1;ratioP1;P2;durP2;ratioP2
47760;SDS011;33524;55.434;38.520;2022-11-20T00:01:31;9.50;;;5.78;;
47760;SDS011;33524;55.434;38.520;2022-11-20T00:04:00;10.48;;;5.12;;
47760;SDS011;33524;55.434;38.520;2022-11-20T00:06:30;8.65;;;4.18;;
47760;SDS011;33524;55.434;38.520;2022-11-20T00:08:59;7.68;;;4.57;;
47760;SDS011;33524;55.434;38.520;2022-11-20T00:11:29;9.45;;;4.72;;
47760;SDS011;33524;55.434;38.520;2022-11-20T00:13:59;7.95;;;4.25;;
47760;SDS011;33524;55.434;38.520;2022-11-20T00:16:32;7.57;;;5.10;;
47760;SDS011;33524;55.434;38.520;2022-11-20T00:19:00;10.02;;;4.60;;
47760;SDS011;33524;55.434;38.520;2022-11-20T00:21:32;7.62;;;4.53;;
47760;SDS011;33524;55.434;38.520;2022-11-20T00:23:59;8.93;;;4.78;;
47760;SDS011;33524;55.434;38.520;2022-11-20T00:26:31;8.07;;;5.37;;
47760;SDS011;33524;55.434;38.520;2022-11-20T00:29:00;10.10;;;4.93;;
47760;SDS011;33524;55.434;38.520;2022-11-20T00:31:29;9.15;;;4.70;;
47760;SDS011;33524;55.434;38.520;2022-11-20T00:33:57;8.73;;;5.15;;
47760;SDS011;33524;55.434;38.520;2022-11-20T00:36:26;7.82;;;4.47;;
47760;SDS011;33524;55.434;38.520;2022-11-20T00:38:56;9.27;;;5.62;;
47760;SDS011;33524;55.434;38.520;2022-11-20T00:41:26;8.52;;;4.97;;
47760;SDS011;33524;55.434;38.520;2022-11-20T00:43:58;8.48;;;4.57;;
47760;SDS011;33524;55.434;38.520;2022-11-20T00:46:26;8.35;;;4.85;;
47760;SDS011;33524;55.434;38.520;2022-11-20T00:48:55;7.53;;;4.70;;
47760;SDS011;33524;55.434;38.520;2022-11-20T00:51:23;7.85;;;4.72;;
47760;SDS011;33524;55.434;38.520;2022-11-20T00:53:56;8.45;;;5.72;;
47760;SDS011;33524;55.434;38.520;2022-11-20T00:56:25;7.00;;;4.80;;
47760;SDS011;33524;55.434;38.520;2022-11-20T00:58:53;8.93;;;4.95;;
47760;SDS011;33524;55.434;38.520;2022-11-20T01:01:22;7.05;;;4.72;;
47760;SDS011;33524;55.434;38.520;2022-11-20T01:03:55;9.35;;;5.40;;
47760;SDS011;33524;55.434;38.520;2022-11-20T01:06:26;13.02;;;3.95;;
47760;SDS011;33524;55.434;38.520;2022-11-20T01:08:57;11.90;;;5.43;;
47760;SDS011;33524;55.434;38.520;2022-11-20T01:11:28;6.22;;;3.78;;
47760;SDS011;33524;55.434;38.520;2022-11-20T01:13:58;9.43;;;5.12;;
47760;SDS011;33524;55.434;38.520;2022-11-20T01:16:31;8.75;;;4.28;;
47760;SDS011;33524;55.434;38.520;2022-11-20T01:19:04;8.57;;;4.85;;
47760;SDS011;33524;55.434;38.520;2022-11-20T01:21:36;6.62;;;4.47;;
47760;SDS011;33524;55.434;38.520;2022-11-20T01:24:16;7.82;;;4.70;;
47760;SDS011;33524;55.434;38.520;2022-11-20T01:26:46;8.10;;;5.12;;
47760;SDS011;33524;55.434;38.520;2022-11-20T01:29:17;7.93;;;4.60;;
47760;SDS011;33524;55.434;38.520;2022-11-20T01:31:50;8.60;;;4.82;;
47760;SDS011;33524;55.434;38.520;2022-11-20T01:34:20;8.10;;;4.97;;
47760;SDS011;33524;55.434;38.520;2022-11-20T01:36:50;5.70;;;3.62;;
47760;SDS011;33524;55.434;38.520;2022-11-20T01:39:20;9.70;;;4.40;;
47760;SDS011;33524;55.434;38.520;2022-11-20T01:41:50;8.13;;;4.43;;
47760;SDS011;33524;55.434;38.520;2022-11-20T01:44:57;9.45;;;5.05;;
47760;SDS011;33524;55.434;38.520;2022-11-20T01:47:43;7.82;;;4.60;;
47760;SDS011;33524;55.434;38.520;2022-11-20T01:50:23;8.60;;;5.15;;
47760;SDS011;33524;55.434;38.520;2022-11-20T01:53:00;11.52;;;7.55;;
47760;SDS011;33524;55.434;38.520;2022-11-20T01:55:33;10.68;;;6.40;;
47760;SDS011;33524;55.434;38.520;2022-11-20T01:58:08;8.25;;;5.45;;
47760;SDS011;33524;55.434;38.520;2022-11-20T02:00:36;7.70;;;5.15;;
47760;SDS011;33524;55.434;38.520;2022-11-20T02:03:05;8.45;;;5.62;;
47760;SDS011;33524;55.434;38.520;2022-11-20T02:08:17;9.68;;;5.37;;
47760;SDS011;33524;55.434;38.520;2022-11-20T02:10:45;8.38;;;4.95;;
47760;SDS011;33524;55.434;38.520;2022-11-20T02:13:13;9.57;;;6.20;;
47760;SDS011;33524;55.434;38.520;2022-11-20T02:16:01;9.70;;;5.20;;
47760;SDS011;33524;55.434;38.520;2022-11-20T02:18:32;9.88;;;5.72;;
47760;SDS011;33524;55.434;38.520;2022-11-20T02:21:06;8.50;;;4.97;;
47760;SDS011;33524;55.434;38.520;2022-11-20T02:23:59;10.45;;;6.32;;
47760;SDS011;33524;55.434;38.520;2022-11-20T02:26:28;8.48;;;5.05;;
47760;SDS011;33524;55.434;38.520;2022-11-20T02:29:01;9.65;;;5.93;;
47760;SDS011;33524;55.434;38.520;2022-11-20T02:31:35;9.65;;;5.93;;
47760;SDS011;33524;55.434;38.520;2022-11-20T02:34:07;7.75;;;5.18;;
47760;SDS011;33524;55.434;38.520;2022-11-20T02:36:36;11.95;;;6.22;;
47760;SDS011;33524;55.434;38.520;2022-11-20T02:39:06;8.63;;;5.25;;
47760;SDS011;33524;55.434;38.520;2022-11-20T02:41:37;12.23;;;5.72;;
47760;SDS011;33524;55.434;38.520;2022-11-20T02:44:05;9.32;;;4.70;;
47760;SDS011;33524;55.434;38.520;2022-11-20T02:46:33;8.68;;;5.43;;
47760;SDS011;33524;55.434;38.520;2022-11-20T02:49:02;7.40;;;4.40;;
47760;SDS011;33524;55.434;38.520;2022-11-20T02:51:31;10.68;;;5.93;;
47760;SDS011;33524;55.434;38.520;2022-11-20T02:53:59;9.40;;;5.60;;
47760;SDS011;33524;55.434;38.520;2022-11-20T02:56:30;7.53;;;5.20;;
47760;SDS011;33524;55.434;38.520;2022-11-20T02:58:58;9.10;;;5.35;;
47760;SDS011;33524;55.434;38.520;2022-11-20T03:01:30;8.27;;;4.82;;
47760;SDS011;33524;55.434;38.520;2022-11-20T03:03:58;10.00;;;6.45;;
47760;SDS011;33524;55.434;38.520;2022-11-20T03:06:26;10.98;;;5.68;;
47760;SDS011;33524;55.434;38.520;2022-11-20T03:08:54;10.48;;;6.25;;
47760;SDS011;33524;55.434;38.520;2022-11-20T03:11:22;10.63;;;6.20;;
47760;SDS011;33524;55.434;38.520;2022-11-20T03:13:50;10.82;;;5.80;;
47760;SDS011;33524;55.434;38.520;2022-11-20T03:16:19;8.63;;;5.18;;
47760;SDS011;33524;55.434;38.520;2022-11-20T03:18:49;9.68;;;5.45;;
47760;SDS011;33524;55.434;38.520;2022-11-20T03:21:19;9.57;;;5.72;;
47760;SDS011;33524;55.434;38.520;2022-11-20T03:23:47;10.57;;;6.72;;
47760;SDS011;33524;55.434;38.520;2022-11-20T03:26:19;10.38;;;6.57;;
47760;SDS011;33524;55.434;38.520;2022-11-20T03:28:58;9.93;;;6.53;;
47760;SDS011;33524;55.434;38.520;2022-11-20T03:31:29;10.63;;;4.87;;
47760;SDS011;33524;55.434;38.520;2022-11-20T03:34:02;9.73;;;6.70;;
47760;SDS011;33524;55.434;38.520;2022-11-20T03:36:31;9.32;;;6.05;;
47760;SDS011;33524;55.434;38.520;2022-11-20T03:39:03;9.00;;;5.87;;
47760;SDS011;33524;55.434;38.520;2022-11-20T03:41:34;9.85;;;5.47;;
47760;SDS011;33524;55.434;38.520;2022-11-20T03:44:05;8.45;;;4.90;;
47760;SDS011;33524;55.434;38.520;2022-11-20T03:46:35;10.13;;;5.87;;
47760;SDS011;33524;55.434;38.520;2022-11-20T03:49:03;11.63;;;7.03;;
47760;SDS011;33524;55.434;38.520;2022-11-20T03:51:31;11.32;;;5.80;;
47760;SDS011;33524;55.434;38.520;2022-11-20T03:54:03;10.18;;;6.43;;
47760;SDS011;33524;55.434;38.520;2022-11-20T03:56:35;6.18;;;4.35;;
47760;SDS011;33524;55.434;38.520;2022-11-20T03:59:09;10.43;;;6.80;;
47760;SDS011;33524;55.434;38.520;2022-11-20T04:04:08;10.43;;;6.53;;
47760;SDS011;33524;55.434;38.520;2022-11-20T04:06:36;8.85;;;4.80;;
47760;SDS011;33524;55.434;38.520;2022-11-20T04:09:05;9.18;;;4.87;;
47760;SDS011;33524;55.434;38.520;2022-11-20T04:11:35;7.87;;;4.93;;
47760;SDS011;33524;55.434;38.520;2022-11-20T04:14:04;9.77;;;5.93;;
47760;SDS011;33524;55.434;38.520;2022-11-20T04:16:34;9.55;;;6.18;;
47760;SDS011;33524;55.434;38.520;2022-11-20T04:19:04;9.43;;;6.20;;
47760;SDS011;33524;55.434;38.520;2022-11-20T04:21:34;10.05;;;5.93;;
47760;SDS011;33524;55.434;38.520;2022-11-20T04:24:02;13.82;;;6.00;;
47760;SDS011;33524;55.434;38.520;2022-11-20T04:26:30;10.52;;;7.07;;
47760;SDS011;33524;55.434;38.520;2022-11-20T04:28:59;6.90;;;4.40;;
47760;SDS011;33524;55.434;38.520;2022-11-20T04:31:30;9.57;;;6.05;;
47760;SDS011;33524;55.434;38.520;2022-11-20T04:34:01;9.75;;;5.70;;
47760;SDS011;33524;55.434;38.520;2022-11-20T04:36:31;9.23;;;5.10;;
47760;SDS011;33524;55.434;38.520;2022-11-20T04:39:01;11.23;;;6.10;;
47760;SDS011;33524;55.434;38.520;2022-11-20T04:41:33;12.00;;;6.72;;
47760;SDS011;33524;55.434;38.520;2022-11-20T04:44:03;10.90;;;6.53;;
47760;SDS011;33524;55.434;38.520;2022-11-20T04:46:40;10.23;;;5.45;;
47760;SDS011;33524;55.434;38.520;2022-11-20T04:49:09;8.90;;;5.65;;
47760;SDS011;33524;55.434;38.520;2022-11-20T04:51:39;8.95;;;5.07;;
47760;SDS011;33524;55.434;38.520;2022-11-20T04:54:07;13.25;;;6.93;;
47760;SDS011;33524;55.434;38.520;2022-11-20T04:56:39;11.68;;;6.40;;
47760;SDS011;33524;55.434;38.520;2022-11-20T04:59:07;11.77;;;6.20;;
47760;SDS011;33524;55.434;38.520;2022-11-20T05:01:35;9.77;;;6.35;;
47760;SDS011;33524;55.434;38.520;2022-11-20T05:04:06;9.70;;;5.62;;
47760;SDS011;33524;55.434;38.520;2022-11-20T05:06:35;10.00;;;5.97;;
47760;SDS011;33524;55.434;38.520;2022-11-20T05:09:03;9.10;;;5.47;;
47760;SDS011;33524;55.434;38.520;2022-11-20T05:11:31;12.52;;;7.07;;
47760;SDS011;33524;55.434;38.520;2022-11-20T05:14:00;11.15;;;6.47;;
47760;SDS011;33524;55.434;38.520;2022-11-20T05:16:31;10.10;;;5.53;;
47760;SDS011;33524;55.434;38.520;2022-11-20T05:19:02;9.57;;;5.90;;
47760;SDS011;33524;55.434;38.520;2022-11-20T05:21:30;9.60;;;5.70;;
47760;SDS011;33524;55.434;38.520;2022-11-20T05:23:59;8.45;;;4.65;;
47760;SDS011;33524;55.434;38.520;2022-11-20T05:26:27;10.23;;;6.15;;
47760;SDS011;33524;55.434;38.520;2022-11-20T05:28:55;11.98;;;6.40;;
47760;SDS011;33524;55.434;38.520;2022-11-20T05:31:23;11.82;;;6.78;;
47760;SDS011;33524;55.434;38.520;2022-11-20T05:33:55;11.63;;;6.90;;
47760;SDS011;33524;55.434;38.520;2022-11-20T05:36:24;9.15;;;5.47;;
47760;SDS011;33524;55.434;38.520;2022-11-20T05:38:52;10.77;;;5.78;;
47760;SDS011;33524;55.434;38.520;2022-11-20T05:41:27;7.75;;;5.37;;
47760;SDS011;33524;55.434;38.520;2022-11-20T05:43:56;11.32;;;6.75;;
47760;SDS011;33524;55.434;38.520;2022-11-20T05:46:26;11.00;;;6.25;;
47760;SDS011;33524;55.434;38.520;2022-11-20T05:48:58;11.07;;;7.47;;
47760;SDS011;33524;55.434;38.520;2022-11-20T05:51:26;8.63;;;5.00;;
47760;SDS011;33524;55.434;38.520;2022-11-20T05:54:01;9.10;;;5.78;;
47760;SDS011;33524;55.434;38.520;2022-11-20T05:56:32;17.27;;;6.90;;
47760;SDS011;33524;55.434;38.520;2022-11-20T05:59:00;12.77;;;7.47;;
47760;SDS011;33524;55.434;38.520;2022-11-20T06:01:28;10.07;;;4.85;;
47760;SDS011;33524;55.434;38.520;2022-11-20T06:03:59;10.15;;;5.93;;
47760;SDS011;33524;55.434;38.520;2022-11-20T06:06:27;10.48;;;6.20;;
47760;SDS011;33524;55.434;38.520;2022-11-20T06:08:55;11.02;;;6.85;;
47760;SDS011;33524;55.434;38.520;2022-11-20T06:11:24;12.05;;;5.93;;
47760;SDS011;33524;55.434;38.520;2022-11-20T06:13:55;14.95;;;7.72;;
47760;SDS011;33524;55.434;38.520;2022-11-20T06:16:23;11.45;;;6.62;;
47760;SDS011;33524;55.434;38.520;2022-11-20T06:18:51;12.32;;;6.45;;
47760;SDS011;33524;55.434;38.520;2022-11-20T06:21:20;12.23;;;6.87;;
47760;SDS011;33524;55.434;38.520;2022-11-20T06:23:50;13.18;;;8.23;;
47760;SDS011;33524;55.434;38.520;2022-11-20T06:26:20;11.73;;;7.00;;
47760;SDS011;33524;55.434;38.520;2022-11-20T06:28:50;11.75;;;6.40;;
47760;SDS011;33524;55.434;38.520;2022-11-20T06:31:20;13.00;;;7.03;;
47760;SDS011;33524;55.434;38.520;2022-11-20T06:33:53;11.38;;;7.43;;
47760;SDS011;33524;55.434;38.520;2022-11-20T06:36:22;10.90;;;7.00;;
47760;SDS011;33524;55.434;38.520;2022-11-20T06:38:50;13.25;;;6.78;;
47760;SDS011;33524;55.434;38.520;2022-11-20T06:41:19;12.20;;;7.50;;
47760;SDS011;33524;55.434;38.520;2022-11-20T06:43:48;11.38;;;6.85;;
47760;SDS011;33524;55.434;38.520;2022-11-20T06:46:17;11.50;;;5.40;;
47760;SDS011;33524;55.434;38.520;2022-11-20T06:48:46;11.60;;;6.43;;
47760;SDS011;33524;55.434;38.520;2022-11-20T06:51:18;11.57;;;7.35;;
47760;SDS011;33524;55.434;38.520;2022-11-20T06:53:47;12.90;;;6.75;;
47760;SDS011;33524;55.434;38.520;2022-11-20T06:56:15;11.30;;;6.35;;
47760;SDS011;33524;55.434;38.520;2022-11-20T06:58:43;10.63;;;6.22;;
47760;SDS011;33524;55.434;38.520;2022-11-20T07:01:13;13.07;;;7.57;;
47760;SDS011;33524;55.434;38.520;2022-11-20T07:03:42;10.52;;;7.40;;
47760;SDS011;33524;55.434;38.520;2022-11-20T07:06:10;14.15;;;7.22;;
47760;SDS011;33524;55.434;38.520;2022-11-20T07:08:38;11.45;;;7.32;;
47760;SDS011;33524;55.434;38.520;2022-11-20T07:11:06;11.35;;;7.43;;
47760;SDS011;33524;55.434;38.520;2022-11-20T07:13:35;11.55;;;6.97;;
47760;SDS011;33524;55.434;38.520;2022-11-20T07:16:04;11.38;;;6.93;;
47760;SDS011;33524;55.434;38.520;2022-11-20T07:18:37;13.70;;;8.02;;
47760;SDS011;33524;55.434;38.520;2022-11-20T07:21:06;10.73;;;6.43;;
47760;SDS011;33524;55.434;38.520;2022-11-20T07:23:38;14.18;;;8.00;;
47760;SDS011;33524;55.434;38.520;2022-11-20T07:26:07;12.13;;;7.15;;
47760;SDS011;33524;55.434;38.520;2022-11-20T07:28:36;11.88;;;6.68;;
47760;SDS011;33524;55.434;38.520;2022-11-20T07:31:05;12.00;;;6.80;;
47760;SDS011;33524;55.434;38.520;2022-11-20T07:33:44;12.30;;;6.80;;
47760;SDS011;33524;55.434;38.520;2022-11-20T07:36:11;11.90;;;6.47;;
47760;SDS011;33524;55.434;38.520;2022-11-20T07:38:39;9.98;;;5.55;;
47760;SDS011;33524;55.434;38.520;2022-11-20T07:41:08;9.02;;;5.80;;
47760;SDS011;33524;55.434;38.520;2022-11-20T07:43:35;12.13;;;6.87;;
47760;SDS011;33524;55.434;38.520;2022-11-20T07:46:08;13.82;;;7.03;;
47760;SDS011;33524;55.434;38.520;2022-11-20T07:48:36;10.23;;;5.97;;
47760;SDS011;33524;55.434;38.520;2022-11-20T07:51:03;13.25;;;6.72;;
47760;SDS011;33524;55.434;38.520;2022-11-20T07:53:32;10.68;;;6.45;;
47760;SDS011;33524;55.434;38.520;2022-11-20T07:56:00;8.93;;;5.72;;
47760;SDS011;33524;55.434;38.520;2022-11-20T07:58:29;8.73;;;6.03;;
47760;SDS011;33524;55.434;38.520;2022-11-20T08:00:58;12.30;;;7.03;;
47760;SDS011;33524;55.434;38.520;2022-11-20T08:03:36;10.27;;;6.65;;
47760;SDS011;33524;55.434;38.520;2022-11-20T08:06:10;9.57;;;5.20;;
47760;SDS011;33524;55.434;38.520;2022-11-20T08:08:38;11.10;;;6.78;;
47760;SDS011;33524;55.434;38.520;2022-11-20T08:11:09;11.88;;;6.40;;
47760;SDS011;33524;55.434;38.520;2022-11-20T08:13:56;9.88;;;5.65;;
47760;SDS011;33524;55.434;38.520;2022-11-20T08:16:43;12.55;;;6.60;;
47760;SDS011;33524;55.434;38.520;2022-11-20T08:19:13;11.18;;;5.90;;
47760;SDS011;33524;55.434;38.520;2022-11-20T08:21:45;12.07;;;6.35;;
47760;SDS011;33524;55.434;38.520;2022-11-20T08:24:13;11.88;;;5.75;;
47760;SDS011;33524;55.434;38.520;2022-11-20T08:26:41;11.52;;;6.15;;
47760;SDS011;33524;55.434;38.520;2022-11-20T08:29:09;11.90;;;6.87;;
47760;SDS011;33524;55.434;38.520;2022-11-20T08:31:37;11.35;;;5.95;;
47760;SDS011;33524;55.434;38.520;2022-11-20T08:34:05;11.30;;;6.40;;
47760;SDS011;33524;55.434;38.520;2022-11-20T08:36:38;10.93;;;6.50;;
47760;SDS011;33524;55.434;38.520;2022-11-20T08:39:06;12.18;;;6.03;;
47760;SDS011;33524;55.434;38.520;2022-11-20T08:41:38;10.77;;;6.00;;
47760;SDS011;33524;55.434;38.520;2022-11-20T08:44:06;11.93;;;5.87;;
47760;SDS011;33524;55.434;38.520;2022-11-20T08:46:36;10.15;;;5.90;;
47760;SDS011;33524;55.434;38.520;2022-11-20T08:49:07;11.12;;;5.80;;
47760;SDS011;33524;55.434;38.520;2022-11-20T08:51:39;12.37;;;6.68;;
47760;SDS011;33524;55.434;38.520;2022-11-20T08:54:08;14.13;;;7.50;;
47760;SDS011;33524;55.434;38.520;2022-11-20T08:56:39;11.88;;;6.32;;
47760;SDS011;33524;55.434;38.520;2022-11-20T08:59:08;10.95;;;6.90;;
47760;SDS011;33524;55.434;38.520;2022-11-20T09:01:58;10.60;;;6.50;;
47760;SDS011;33524;55.434;38.520;2022-11-20T09:04:27;11.98;;;6.68;;
47760;SDS011;33524;55.434;38.520;2022-11-20T09:06:56;11.40;;;7.07;;
47760;SDS011;33524;55.434;38.520;2022-11-20T09:09:24;11.95;;;6.80;;
47760;SDS011;33524;55.434;38.520;2022-11-20T09:11:52;9.43;;;6.43;;
47760;SDS011;33524;55.434;38.520;2022-11-20T09:14:20;11.93;;;6.65;;
47760;SDS011;33524;55.434;38.520;2022-11-20T09:16:48;16.80;;;7.80;;
47760;SDS011;33524;55.434;38.520;2022-11-20T09:19:16;9.80;;;5.82;;
47760;SDS011;33524;55.434;38.520;2022-11-20T09:22:04;10.55;;;6.10;;
47760;SDS011;33524;55.434;38.520;2022-11-20T09:24:32;13.00;;;7.20;;
47760;SDS011;33524;55.434;38.520;2022-11-20T09:27:06;11.68;;;7.07;;
47760;SDS011;33524;55.434;38.520;2022-11-20T09:29:34;14.48;;;7.75;;
47760;SDS011;33524;55.434;38.520;2022-11-20T09:32:02;11.68;;;6.82;;
47760;SDS011;33524;55.434;38.520;2022-11-20T09:34:30;13.65;;;7.62;;
47760;SDS011;33524;55.434;38.520;2022-11-20T09:36:59;10.50;;;6.22;;
47760;SDS011;33524;55.434;38.520;2022-11-20T09:39:32;12.45;;;7.37;;
47760;SDS011;33524;55.434;38.520;2022-11-20T09:42:07;11.40;;;6.97;;
47760;SDS011;33524;55.434;38.520;2022-11-20T09:45:53;11.63;;;7.15;;
47760;SDS011;33524;55.434;38.520;2022-11-20T09:48:00;15.40;;;7.75;;
47760;SDS011;33524;55.434;38.520;2022-11-20T09:56:30;13.15;;;7.12;;
47760;SDS011;33524;55.434;38.520;2022-11-20T09:59:05;13.85;;;8.68;;
47760;SDS011;33524;55.434;38.520;2022-11-20T10:01:35;16.25;;;8.98;;
47760;SDS011;33524;55.434;38.520;2022-11-20T10:04:09;14.50;;;8.70;;
47760;SDS011;33524;55.434;38.520;2022-11-20T10:06:51;10.88;;;7.72;;
47760;SDS011;33524;55.434;38.520;2022-11-20T10:09:55;14.18;;;8.60;;
47760;SDS011;33524;55.434;38.520;2022-11-20T10:15:03;14.90;;;8.70;;
47760;SDS011;33524;55.434;38.520;2022-11-20T10:23:26;18.12;;;9.60;;
47760;SDS011;33524;55.434;38.520;2022-11-20T10:26:25;18.00;;;9.00;;
47760;SDS011;33524;55.434;38.520;2022-11-20T10:31:56;21.87;;;9.85;;
47760;SDS011;33524;55.434;38.520;2022-11-20T10:37:23;18.73;;;10.50;;
47760;SDS011;33524;55.434;38.520;2022-11-20T10:42:46;21.80;;;11.00;;
47760;SDS011;33524;55.434;38.520;2022-11-20T10:47:55;19.92;;;9.93;;
47760;SDS011;33524;55.434;38.520;2022-11-20T10:50:40;20.55;;;10.38;;
47760;SDS011;33524;55.434;38.520;2022-11-20T10:53:40;21.45;;;11.02;;
47760;SDS011;33524;55.434;38.520;2022-11-20T10:56:39;21.45;;;11.02;;
47760;SDS011;33524;55.434;38.520;2022-11-20T10:59:25;18.60;;;10.90;;
47760;SDS011;33524;55.434;38.520;2022-11-20T11:02:23;24.33;;;11.45;;
47760;SDS011;33524;55.434;38.520;2022-11-20T11:04:58;22.70;;;11.80;;
47760;SDS011;33524;55.434;38.520;2022-11-20T11:07:53;20.42;;;11.85;;
47760;SDS011;33524;55.434;38.520;2022-11-20T11:10:44;21.95;;;10.45;;
47760;SDS011;33524;55.434;38.520;2022-11-20T11:13:27;17.83;;;9.93;;
47760;SDS011;33524;55.434;38.520;2022-11-20T11:15:57;19.87;;;10.05;;
47760;SDS011;33524;55.434;38.520;2022-11-20T11:18:26;19.23;;;10.88;;
47760;SDS011;33524;55.434;38.520;2022-11-20T11:20:58;19.30;;;10.63;;
47760;SDS011;33524;55.434;38.520;2022-11-20T11:26:19;22.77;;;11.40;;
47760;SDS011;33524;55.434;38.520;2022-11-20T11:28:57;18.60;;;10.27;;
47760;SDS011;33524;55.434;38.520;2022-11-20T11:31:32;25.30;;;12.80;;
47760;SDS011;33524;55.434;38.520;2022-11-20T11:34:06;20.42;;;12.02;;
47760;SDS011;33524;55.434;38.520;2022-11-20T11:36:41;26.92;;;12.75;;
47760;SDS011;33524;55.434;38.520;2022-11-20T11:39:17;25.67;;;11.40;;
47760;SDS011;33524;55.434;38.520;2022-11-20T11:41:48;25.42;;;13.05;;
47760;SDS011;33524;55.434;38.520;2022-11-20T11:44:20;27.13;;;11.73;;
47760;SDS011;33524;55.434;38.520;2022-11-20T12:01:26;25.10;;;13.20;;
47760;SDS011;33524;55.434;38.520;2022-11-20T12:06:47;30.55;;;15.40;;
47760;SDS011;33524;55.434;38.520;2022-11-20T12:09:47;39.83;;;19.80;;
47760;SDS011;33524;55.434;38.520;2022-11-20T12:12:20;30.42;;;17.00;;
47760;SDS011;33524;55.434;38.520;2022-11-20T12:14:58;28.40;;;13.98;;
47760;SDS011;33524;55.434;38.520;2022-11-20T12:17:26;27.73;;;14.98;;
47760;SDS011;33524;55.434;38.520;2022-11-20T12:19:53;25.35;;;13.70;;
47760;SDS011;33524;55.434;38.520;2022-11-20T12:30:17;28.58;;;13.30;;
47760;SDS011;33524;55.434;38.520;2022-11-20T12:35:55;29.90;;;14.27;;
47760;SDS011;33524;55.434;38.520;2022-11-20T12:48:08;27.60;;;12.55;;
47760;SDS011;33524;55.434;38.520;2022-11-20T12:53:54;22.45;;;11.73;;
47760;SDS011;33524;55.434;38.520;2022-11-20T12:56:48;23.87;;;13.38;;
47760;SDS011;33524;55.434;38.520;2022-11-20T13:08:15;28.87;;;11.82;;
47760;SDS011;33524;55.434;38.520;2022-11-20T13:10:55;22.48;;;11.98;;
47760;SDS011;33524;55.434;38.520;2022-11-20T13:13:30;23.17;;;10.63;;
47760;SDS011;33524;55.434;38.520;2022-11-20T13:16:01;21.02;;;10.57;;
47760;SDS011;33524;55.434;38.520;2022-11-20T13:18:42;18.92;;;9.40;;
47760;SDS011;33524;55.434;38.520;2022-11-20T13:21:16;22.42;;;10.05;;
47760;SDS011;33524;55.434;38.520;2022-11-20T13:23:46;19.50;;;9.85;;
47760;SDS011;33524;55.434;38.520;2022-11-20T13:29:02;20.48;;;10.75;;
47760;SDS011;33524;55.434;38.520;2022-11-20T13:31:48;24.58;;;11.48;;
47760;SDS011;33524;55.434;38.520;2022-11-20T13:34:24;30.30;;;11.77;;
47760;SDS011;33524;55.434;38.520;2022-11-20T13:36:54;22.77;;;10.57;;
47760;SDS011;33524;55.434;38.520;2022-11-20T13:39:27;29.70;;;12.75;;
47760;SDS011;33524;55.434;38.520;2022-11-20T13:44:42;24.58;;;10.38;;
47760;SDS011;33524;55.434;38.520;2022-11-20T13:47:25;20.90;;;10.40;;
47760;SDS011;33524;55.434;38.520;2022-11-20T13:49:55;21.95;;;10.05;;
47760;SDS011;33524;55.434;38.520;2022-11-20T13:55:25;21.33;;;9.63;;
47760;SDS011;33524;55.434;38.520;2022-11-20T14:01:14;28.60;;;13.68;;
47760;SDS011;33524;55.434;38.520;2022-11-20T14:03:47;32.80;;;14.52;;
47760;SDS011;33524;55.434;38.520;2022-11-20T14:06:43;24.95;;;11.73;;
47760;SDS011;33524;55.434;38.520;2022-11-20T14:09:34;27.02;;;11.88;;
47760;SDS011;33524;55.434;38.520;2022-11-20T14:12:02;31.35;;;14.10;;
47760;SDS011;33524;55.434;38.520;2022-11-20T14:14:47;32.67;;;14.02;;
47760;SDS011;33524;55.434;38.520;2022-11-20T14:17:21;29.63;;;15.45;;
47760;SDS011;33524;55.434;38.520;2022-11-20T14:19:52;40.97;;;16.33;;
47760;SDS011;33524;55.434;38.520;2022-11-20T14:22:25;38.17;;;14.85;;
47760;SDS011;33524;55.434;38.520;2022-11-20T14:27:42;37.15;;;14.85;;
47760;SDS011;33524;55.434;38.520;2022-11-20T14:30:12;28.42;;;13.65;;
47760;SDS011;33524;55.434;38.520;2022-11-20T14:32:43;30.48;;;12.55;;
47760;SDS011;33524;55.434;38.520;2022-11-20T14:35:57;26.92;;;11.77;;
47760;SDS011;33524;55.434;38.520;2022-11-20T14:38:14;23.73;;;10.98;;
47760;SDS011;33524;55.434;38.520;2022-11-20T14:40:45;29.92;;;11.77;;
47760;SDS011;33524;55.434;38.520;2022-11-20T14:43:21;28.38;;;12.20;;
47760;SDS011;33524;55.434;38.520;2022-11-20T14:45:59;29.63;;;13.27;;
47760;SDS011;33524;55.434;38.520;2022-11-20T14:48:41;37.47;;;12.98;;
47760;SDS011;33524;55.434;38.520;2022-11-20T14:51:37;38.58;;;13.62;;
47760;SDS011;33524;55.434;38.520;2022-11-20T14:56:54;29.05;;;12.93;;
47760;SDS011;33524;55.434;38.520;2022-11-20T14:59:24;31.55;;;13.70;;
47760;SDS011;33524;55.434;38.520;2022-11-20T15:01:54;32.08;;;13.85;;
47760;SDS011;33524;55.434;38.520;2022-11-20T15:04:28;37.80;;;13.20;;
47760;SDS011;33524;55.434;38.520;2022-11-20T15:06:58;45.22;;;17.02;;
47760;SDS011;33524;55.434;38.520;2022-11-20T15:09:27;36.03;;;14.90;;
47760;SDS011;33524;55.434;38.520;2022-11-20T15:11:57;38.85;;;14.68;;
47760;SDS011;33524;55.434;38.520;2022-11-20T15:14:31;28.45;;;13.77;;
47760;SDS011;33524;55.434;38.520;2022-11-20T15:16:59;34.67;;;14.10;;
47760;SDS011;33524;55.434;38.520;2022-11-20T15:19:28;25.55;;;14.18;;
47760;SDS011;33524;55.434;38.520;2022-11-20T15:21:56;41.35;;;15.63;;
47760;SDS011;33524;55.434;38.520;2022-11-20T15:24:24;36.70;;;14.13;;
47760;SDS011;33524;55.434;38.520;2022-11-20T15:26:55;30.60;;;12.77;;
47760;SDS011;33524;55.434;38.520;2022-11-20T15:29:23;37.58;;;15.85;;
47760;SDS011;33524;55.434;38.520;2022-11-20T15:31:52;31.40;;;13.07;;
47760;SDS011;33524;55.434;38.520;2022-11-20T15:34:21;34.97;;;14.70;;
47760;SDS011;33524;55.434;38.520;2022-11-20T15:36:49;37.95;;;15.10;;
47760;SDS011;33524;55.434;38.520;2022-11-20T15:39:18;40.30;;;15.35;;
47760;SDS011;33524;55.434;38.520;2022-11-20T15:41:46;81.53;;;37.50;;
47760;SDS011;33524;55.434;38.520;2022-11-20T15:44:14;60.53;;;26.92;;
47760;SDS011;33524;55.434;38.520;2022-11-20T15:46:42;47.00;;;19.58;;
47760;SDS011;33524;55.434;38.520;2022-11-20T15:49:13;35.00;;;15.43;;
47760;SDS011;33524;55.434;38.520;2022-11-20T15:51:44;36.70;;;15.02;;
47760;SDS011;33524;55.434;38.520;2022-11-20T15:54:16;45.70;;;16.15;;
47760;SDS011;33524;55.434;38.520;2022-11-20T15:56:50;36.13;;;13.65;;
47760;SDS011;33524;55.434;38.520;2022-11-20T15:59:21;42.13;;;15.65;;
47760;SDS011;33524;55.434;38.520;2022-11-20T16:01:49;37.40;;;15.52;;
47760;SDS011;33524;55.434;38.520;2022-11-20T16:04:18;43.25;;;16.08;;
47760;SDS011;33524;55.434;38.520;2022-11-20T16:06:46;41.20;;;15.27;;
47760;SDS011;33524;55.434;38.520;2022-11-20T16:09:14;37.97;;;15.98;;
47760;SDS011;33524;55.434;38.520;2022-11-20T16:11:45;35.65;;;13.35;;
47760;SDS011;33524;55.434;38.520;2022-11-20T16:14:13;35.40;;;13.90;;
47760;SDS011;33524;55.434;38.520;2022-11-20T16:17:00;31.77;;;13.82;;
47760;SDS011;33524;55.434;38.520;2022-11-20T16:19:28;38.70;;;14.77;;
47760;SDS011;33524;55.434;38.520;2022-11-20T16:21:57;34.50;;;14.10;;
47760;SDS011;33524;55.434;38.520;2022-11-20T16:24:29;36.65;;;14.02;;
47760;SDS011;33524;55.434;38.520;2022-11-20T16:26:57;29.50;;;13.02;;
47760;SDS011;33524;55.434;38.520;2022-11-20T16:29:25;36.63;;;15.45;;
47760;SDS011;33524;55.434;38.520;2022-11-20T16:31:53;38.58;;;13.57;;